Johnstown, New York
Current Conditions -  °F | °C
As of 1:15 AM on Friday 19 Dec 2014 (Local Time) from KNY0 Reporting Station
Overcast Overcast  
Wind Chill: 17°   Ceiling: 3700
Heat Index: 27°   Visibility: 10mi
Dew Point: 22°   Wind: 9mph
Humidity: 83%   Direction: 290°WNW
Pressure: 29.95"   Gusts: NA
Location:  43.01°N, 74.37°W
Report Text: KNY0 190615Z AUTO 29008KT 10SM OVC037 M03/M05 A2995 RMK AO2 T10301055
Loading
Personal Weather Stations






























Interactive Weather Map New forecast layout! Learn more

10-Day Weather Forecast

Advertisements
Track Severe Weather on mobile